sensor_id;sensor_type;location;lat;lon;timestamp;temperature;humidity
56308;DHT22;42217;50.422;7.210;2023-06-24T00:02:06;15.40;99.90
56308;DHT22;42217;50.422;7.210;2023-06-24T00:04:32;15.30;99.90
56308;DHT22;42217;50.422;7.210;2023-06-24T00:06:59;15.10;99.90
56308;DHT22;42217;50.422;7.210;2023-06-24T00:09:29;15.00;99.90
56308;DHT22;42217;50.422;7.210;2023-06-24T00:11:56;15.00;99.90
56308;DHT22;42217;50.422;7.210;2023-06-24T00:14:22;15.10;99.90
56308;DHT22;42217;50.422;7.210;2023-06-24T00:16:53;15.20;99.90
56308;DHT22;42217;50.422;7.210;2023-06-24T00:19:20;15.20;99.90
56308;DHT22;42217;50.422;7.210;2023-06-24T00:21:48;15.20;99.90
56308;DHT22;42217;50.422;7.210;2023-06-24T00:24:13;15.30;99.90
56308;DHT22;42217;50.422;7.210;2023-06-24T00:26:39;15.40;99.90
56308;DHT22;42217;50.422;7.210;2023-06-24T00:29:05;15.30;99.90
56308;DHT22;42217;50.422;7.210;2023-06-24T00:31:31;15.30;99.90
56308;DHT22;42217;50.422;7.210;2023-06-24T00:33:56;15.30;99.90
56308;DHT22;42217;50.422;7.210;2023-06-24T00:36:22;15.20;99.90
56308;DHT22;42217;50.422;7.210;2023-06-24T00:38:48;15.10;99.90
56308;DHT22;42217;50.422;7.210;2023-06-24T00:41:17;15.10;99.90
56308;DHT22;42217;50.422;7.210;2023-06-24T00:43:46;15.20;99.90
56308;DHT22;42217;50.422;7.210;2023-06-24T00:46:12;15.30;99.90
56308;DHT22;42217;50.422;7.210;2023-06-24T00:48:39;15.40;99.90
56308;DHT22;42217;50.422;7.210;2023-06-24T00:51:05;15.40;99.90
56308;DHT22;42217;50.422;7.210;2023-06-24T00:53:30;15.30;99.90
56308;DHT22;42217;50.422;7.210;2023-06-24T00:55:58;15.30;99.90
56308;DHT22;42217;50.422;7.210;2023-06-24T00:58:30;15.30;99.90
56308;DHT22;42217;50.422;7.210;2023-06-24T01:00:57;15.30;99.90
56308;DHT22;42217;50.422;7.210;2023-06-24T01:03:27;15.30;99.90
56308;DHT22;42217;50.422;7.210;2023-06-24T01:05:54;15.20;99.90
56308;DHT22;42217;50.422;7.210;2023-06-24T01:08:20;15.30;99.90
56308;DHT22;42217;50.422;7.210;2023-06-24T01:10:49;15.10;99.90
56308;DHT22;42217;50.422;7.210;2023-06-24T01:13:15;15.10;99.90
56308;DHT22;42217;50.422;7.210;2023-06-24T01:15:41;15.00;99.90
56308;DHT22;42217;50.422;7.210;2023-06-24T01:21:15;15.00;99.90
56308;DHT22;42217;50.422;7.210;2023-06-24T01:29:32;15.20;99.90
56308;DHT22;42217;50.422;7.210;2023-06-24T01:32:07;15.10;99.90
56308;DHT22;42217;50.422;7.210;2023-06-24T01:37:43;15.10;99.90
56308;DHT22;42217;50.422;7.210;2023-06-24T01:42:41;15.00;99.90
56308;DHT22;42217;50.422;7.210;2023-06-24T01:45:10;14.90;99.90
56308;DHT22;42217;50.422;7.210;2023-06-24T01:47:38;14.90;99.90
56308;DHT22;42217;50.422;7.210;2023-06-24T01:50:06;14.80;99.90
56308;DHT22;42217;50.422;7.210;2023-06-24T01:52:35;14.80;99.90
56308;DHT22;42217;50.422;7.210;2023-06-24T01:55:01;14.90;99.90
56308;DHT22;42217;50.422;7.210;2023-06-24T01:57:31;14.90;99.90
56308;DHT22;42217;50.422;7.210;2023-06-24T01:59:59;14.90;99.90
56308;DHT22;42217;50.422;7.210;2023-06-24T02:02:26;14.90;99.90
56308;DHT22;42217;50.422;7.210;2023-06-24T02:04:54;14.80;99.90
56308;DHT22;42217;50.422;7.210;2023-06-24T02:07:20;14.80;99.90
56308;DHT22;42217;50.422;7.210;2023-06-24T02:09:48;14.90;99.90
56308;DHT22;42217;50.422;7.210;2023-06-24T02:12:13;14.80;99.90
56308;DHT22;42217;50.422;7.210;2023-06-24T02:14:41;14.70;99.90
56308;DHT22;42217;50.422;7.210;2023-06-24T02:17:10;14.80;99.90
56308;DHT22;42217;50.422;7.210;2023-06-24T02:19:37;14.80;99.90
56308;DHT22;42217;50.422;7.210;2023-06-24T02:22:04;14.80;99.90
56308;DHT22;42217;50.422;7.210;2023-06-24T02:24:35;14.80;99.90
56308;DHT22;42217;50.422;7.210;2023-06-24T02:27:02;14.70;99.90
56308;DHT22;42217;50.422;7.210;2023-06-24T02:29:29;14.50;99.90
56308;DHT22;42217;50.422;7.210;2023-06-24T02:31:55;14.40;99.90
56308;DHT22;42217;50.422;7.210;2023-06-24T02:34:23;14.30;99.90
56308;DHT22;42217;50.422;7.210;2023-06-24T02:36:49;14.30;99.90
56308;DHT22;42217;50.422;7.210;2023-06-24T02:39:15;14.40;99.90
56308;DHT22;42217;50.422;7.210;2023-06-24T02:41:40;14.30;99.90
56308;DHT22;42217;50.422;7.210;2023-06-24T02:44:06;14.20;99.90
56308;DHT22;42217;50.422;7.210;2023-06-24T02:46:34;14.30;99.90
56308;DHT22;42217;50.422;7.210;2023-06-24T02:49:01;14.40;99.90
56308;DHT22;42217;50.422;7.210;2023-06-24T02:51:28;14.50;99.90
56308;DHT22;42217;50.422;7.210;2023-06-24T02:53:55;14.60;99.90
56308;DHT22;42217;50.422;7.210;2023-06-24T02:56:24;14.60;99.90
56308;DHT22;42217;50.422;7.210;2023-06-24T02:58:52;14.60;99.90
56308;DHT22;42217;50.422;7.210;2023-06-24T03:01:19;14.60;99.90
56308;DHT22;42217;50.422;7.210;2023-06-24T03:03:53;14.50;99.90
56308;DHT22;42217;50.422;7.210;2023-06-24T03:06:19;14.60;99.90
56308;DHT22;42217;50.422;7.210;2023-06-24T03:08:46;14.70;99.90
56308;DHT22;42217;50.422;7.210;2023-06-24T03:11:13;14.80;99.90
56308;DHT22;42217;50.422;7.210;2023-06-24T03:13:43;14.80;99.90
56308;DHT22;42217;50.422;7.210;2023-06-24T03:16:09;14.80;99.90
56308;DHT22;42217;50.422;7.210;2023-06-24T03:18:40;14.80;99.90
56308;DHT22;42217;50.422;7.210;2023-06-24T03:21:06;14.80;99.90
56308;DHT22;42217;50.422;7.210;2023-06-24T03:23:31;14.90;99.90
56308;DHT22;42217;50.422;7.210;2023-06-24T03:25:57;14.90;99.90
56308;DHT22;42217;50.422;7.210;2023-06-24T03:28:23;14.90;99.90
56308;DHT22;42217;50.422;7.210;2023-06-24T03:30:48;14.90;99.90
56308;DHT22;42217;50.422;7.210;2023-06-24T03:33:14;14.80;99.90
56308;DHT22;42217;50.422;7.210;2023-06-24T03:35:45;14.80;99.90
56308;DHT22;42217;50.422;7.210;2023-06-24T03:38:11;14.80;99.90
56308;DHT22;42217;50.422;7.210;2023-06-24T03:40:37;14.90;99.90
56308;DHT22;42217;50.422;7.210;2023-06-24T03:43:03;15.00;99.90
56308;DHT22;42217;50.422;7.210;2023-06-24T03:45:28;15.20;99.90
56308;DHT22;42217;50.422;7.210;2023-06-24T03:47:54;15.20;99.90
56308;DHT22;42217;50.422;7.210;2023-06-24T03:50:19;15.40;99.90
56308;DHT22;42217;50.422;7.210;2023-06-24T03:52:45;15.50;99.90
56308;DHT22;42217;50.422;7.210;2023-06-24T03:55:11;15.70;99.90
56308;DHT22;42217;50.422;7.210;2023-06-24T03:57:37;15.80;99.90
56308;DHT22;42217;50.422;7.210;2023-06-24T04:00:03;15.80;99.90
56308;DHT22;42217;50.422;7.210;2023-06-24T04:02:47;16.00;99.90
56308;DHT22;42217;50.422;7.210;2023-06-24T04:05:13;16.10;99.90
56308;DHT22;42217;50.422;7.210;2023-06-24T04:07:38;16.10;99.90
56308;DHT22;42217;50.422;7.210;2023-06-24T04:10:06;16.10;99.90
56308;DHT22;42217;50.422;7.210;2023-06-24T04:12:37;15.90;99.90
56308;DHT22;42217;50.422;7.210;2023-06-24T04:15:03;15.90;99.90
56308;DHT22;42217;50.422;7.210;2023-06-24T04:17:30;15.90;99.90
56308;DHT22;42217;50.422;7.210;2023-06-24T04:19:56;15.90;99.90
56308;DHT22;42217;50.422;7.210;2023-06-24T04:22:22;15.90;99.90
56308;DHT22;42217;50.422;7.210;2023-06-24T04:24:48;16.10;99.90
56308;DHT22;42217;50.422;7.210;2023-06-24T04:27:14;16.20;99.90
56308;DHT22;42217;50.422;7.210;2023-06-24T04:29:39;16.40;99.90
56308;DHT22;42217;50.422;7.210;2023-06-24T04:32:05;16.70;99.90
56308;DHT22;42217;50.422;7.210;2023-06-24T04:34:31;17.00;99.90
56308;DHT22;42217;50.422;7.210;2023-06-24T04:36:58;17.10;99.90
56308;DHT22;42217;50.422;7.210;2023-06-24T04:39:23;17.20;99.90
56308;DHT22;42217;50.422;7.210;2023-06-24T04:41:49;17.30;99.90
56308;DHT22;42217;50.422;7.210;2023-06-24T04:44:15;17.30;99.90
56308;DHT22;42217;50.422;7.210;2023-06-24T04:46:40;17.50;99.90
56308;DHT22;42217;50.422;7.210;2023-06-24T04:49:06;17.60;99.90
56308;DHT22;42217;50.422;7.210;2023-06-24T04:51:32;17.80;99.90
56308;DHT22;42217;50.422;7.210;2023-06-24T04:53:58;17.80;99.90
56308;DHT22;42217;50.422;7.210;2023-06-24T04:56:24;17.80;99.90
56308;DHT22;42217;50.422;7.210;2023-06-24T04:58:50;18.00;99.90
56308;DHT22;42217;50.422;7.210;2023-06-24T05:01:17;18.30;99.90
56308;DHT22;42217;50.422;7.210;2023-06-24T05:03:42;18.60;99.60
56308;DHT22;42217;50.422;7.210;2023-06-24T05:06:08;18.70;98.80
56308;DHT22;42217;50.422;7.210;2023-06-24T05:08:34;18.80;99.90
56308;DHT22;42217;50.422;7.210;2023-06-24T05:10:59;19.00;98.90
56308;DHT22;42217;50.422;7.210;2023-06-24T05:13:27;19.10;99.90
56308;DHT22;42217;50.422;7.210;2023-06-24T05:15:53;19.20;99.90
56308;DHT22;42217;50.422;7.210;2023-06-24T05:18:19;19.30;99.90
56308;DHT22;42217;50.422;7.210;2023-06-24T05:20:44;19.40;95.80
56308;DHT22;42217;50.422;7.210;2023-06-24T05:23:10;19.50;99.90
56308;DHT22;42217;50.422;7.210;2023-06-24T05:25:36;19.60;95.50
56308;DHT22;42217;50.422;7.210;2023-06-24T05:28:02;19.60;94.10
56308;DHT22;42217;50.422;7.210;2023-06-24T05:30:27;19.70;95.90
56308;DHT22;42217;50.422;7.210;2023-06-24T05:32:53;19.80;99.90
56308;DHT22;42217;50.422;7.210;2023-06-24T05:35:19;19.90;99.90
56308;DHT22;42217;50.422;7.210;2023-06-24T05:37:45;20.00;99.90
56308;DHT22;42217;50.422;7.210;2023-06-24T05:40:11;20.20;99.90
56308;DHT22;42217;50.422;7.210;2023-06-24T05:42:38;20.30;99.90
56308;DHT22;42217;50.422;7.210;2023-06-24T05:45:04;20.60;97.00
56308;DHT22;42217;50.422;7.210;2023-06-24T05:47:31;20.70;95.60
56308;DHT22;42217;50.422;7.210;2023-06-24T05:49:57;20.90;96.00
56308;DHT22;42217;50.422;7.210;2023-06-24T05:52:24;21.00;93.60
56308;DHT22;42217;50.422;7.210;2023-06-24T05:54:50;21.20;76.40
56308;DHT22;42217;50.422;7.210;2023-06-24T05:57:15;21.40;52.00
56308;DHT22;42217;50.422;7.210;2023-06-24T05:59:41;21.50;22.40
56308;DHT22;42217;50.422;7.210;2023-06-24T06:02:07;21.70;30.00
56308;DHT22;42217;50.422;7.210;2023-06-24T06:04:32;21.90;23.70
56308;DHT22;42217;50.422;7.210;2023-06-24T06:06:58;22.10;16.90
56308;DHT22;42217;50.422;7.210;2023-06-24T06:09:24;22.30;7.40
56308;DHT22;42217;50.422;7.210;2023-06-24T06:11:50;22.50;1.00
56308;DHT22;42217;50.422;7.210;2023-06-24T06:14:15;22.70;1.00
56308;DHT22;42217;50.422;7.210;2023-06-24T06:16:41;22.90;1.00
56308;DHT22;42217;50.422;7.210;2023-06-24T06:19:07;23.20;1.00
56308;DHT22;42217;50.422;7.210;2023-06-24T06:21:33;23.20;1.00
56308;DHT22;42217;50.422;7.210;2023-06-24T06:23:58;23.30;1.00
56308;DHT22;42217;50.422;7.210;2023-06-24T06:26:24;23.30;1.00
56308;DHT22;42217;50.422;7.210;2023-06-24T06:28:50;23.50;1.00
56308;DHT22;42217;50.422;7.210;2023-06-24T06:31:16;23.60;1.00
56308;DHT22;42217;50.422;7.210;2023-06-24T06:33:43;23.80;1.00
56308;DHT22;42217;50.422;7.210;2023-06-24T06:36:09;24.20;99.90
56308;DHT22;42217;50.422;7.210;2023-06-24T06:38:34;24.10;99.90
56308;DHT22;42217;50.422;7.210;2023-06-24T06:41:00;23.90;99.90
56308;DHT22;42217;50.422;7.210;2023-06-24T06:43:26;23.90;99.90
56308;DHT22;42217;50.422;7.210;2023-06-24T06:45:52;23.70;99.90
56308;DHT22;42217;50.422;7.210;2023-06-24T06:48:18;23.70;99.90
56308;DHT22;42217;50.422;7.210;2023-06-24T06:50:44;23.70;99.90
56308;DHT22;42217;50.422;7.210;2023-06-24T06:53:10;23.70;99.90
56308;DHT22;42217;50.422;7.210;2023-06-24T06:55:36;23.80;1.00
56308;DHT22;42217;50.422;7.210;2023-06-24T06:58:04;24.00;1.00
56308;DHT22;42217;50.422;7.210;2023-06-24T07:00:30;24.30;99.90
56308;DHT22;42217;50.422;7.210;2023-06-24T07:02:56;24.40;99.90
56308;DHT22;42217;50.422;7.210;2023-06-24T07:05:21;24.60;99.90
56308;DHT22;42217;50.422;7.210;2023-06-24T07:07:47;24.70;99.90
56308;DHT22;42217;50.422;7.210;2023-06-24T07:10:15;24.70;99.90
56308;DHT22;42217;50.422;7.210;2023-06-24T07:12:42;24.80;99.90
56308;DHT22;42217;50.422;7.210;2023-06-24T07:15:08;24.90;99.90
56308;DHT22;42217;50.422;7.210;2023-06-24T07:17:34;25.20;99.90
56308;DHT22;42217;50.422;7.210;2023-06-24T07:20:00;25.30;99.90
56308;DHT22;42217;50.422;7.210;2023-06-24T07:22:25;25.40;99.90
56308;DHT22;42217;50.422;7.210;2023-06-24T07:24:51;25.60;99.90
56308;DHT22;42217;50.422;7.210;2023-06-24T07:27:17;25.50;99.90
56308;DHT22;42217;50.422;7.210;2023-06-24T07:29:42;25.60;99.90
56308;DHT22;42217;50.422;7.210;2023-06-24T07:32:08;25.70;99.90
56308;DHT22;42217;50.422;7.210;2023-06-24T07:34:34;25.70;99.90
56308;DHT22;42217;50.422;7.210;2023-06-24T07:36:59;25.60;99.90
56308;DHT22;42217;50.422;7.210;2023-06-24T07:39:25;25.60;99.90
56308;DHT22;42217;50.422;7.210;2023-06-24T07:41:51;25.50;99.90
56308;DHT22;42217;50.422;7.210;2023-06-24T07:44:17;25.60;99.90
56308;DHT22;42217;50.422;7.210;2023-06-24T07:46:43;25.70;92.60
56308;DHT22;42217;50.422;7.210;2023-06-24T07:49:09;25.90;99.90
56308;DHT22;42217;50.422;7.210;2023-06-24T07:51:34;25.70;64.50
56308;DHT22;42217;50.422;7.210;2023-06-24T07:54:00;25.80;9.20
56308;DHT22;42217;50.422;7.210;2023-06-24T07:56:26;26.00;99.90
56308;DHT22;42217;50.422;7.210;2023-06-24T07:58:52;26.30;99.90
56308;DHT22;42217;50.422;7.210;2023-06-24T08:01:18;26.60;99.90
56308;DHT22;42217;50.422;7.210;2023-06-24T08:03:44;26.70;99.90
56308;DHT22;42217;50.422;7.210;2023-06-24T08:06:09;27.00;99.90
56308;DHT22;42217;50.422;7.210;2023-06-24T08:08:35;27.30;99.90
56308;DHT22;42217;50.422;7.210;2023-06-24T08:11:02;27.40;99.90
56308;DHT22;42217;50.422;7.210;2023-06-24T08:13:28;27.60;99.90
56308;DHT22;42217;50.422;7.210;2023-06-24T08:15:54;27.90;99.90
56308;DHT22;42217;50.422;7.210;2023-06-24T08:18:20;28.40;99.90
56308;DHT22;42217;50.422;7.210;2023-06-24T08:20:45;28.60;99.90
56308;DHT22;42217;50.422;7.210;2023-06-24T08:23:11;28.80;99.90
56308;DHT22;42217;50.422;7.210;2023-06-24T08:25:36;28.60;99.90
56308;DHT22;42217;50.422;7.210;2023-06-24T08:28:02;28.80;99.10
56308;DHT22;42217;50.422;7.210;2023-06-24T08:30:28;29.30;98.80
56308;DHT22;42217;50.422;7.210;2023-06-24T08:32:55;29.60;97.80
56308;DHT22;42217;50.422;7.210;2023-06-24T08:35:21;29.80;97.40
56308;DHT22;42217;50.422;7.210;2023-06-24T08:37:46;30.10;96.90
56308;DHT22;42217;50.422;7.210;2023-06-24T08:40:12;30.40;94.80
56308;DHT22;42217;50.422;7.210;2023-06-24T08:42:38;30.60;93.30
56308;DHT22;42217;50.422;7.210;2023-06-24T08:45:04;30.70;93.40
56308;DHT22;42217;50.422;7.210;2023-06-24T08:47:30;30.60;92.20
56308;DHT22;42217;50.422;7.210;2023-06-24T08:50:03;29.90;92.70
56308;DHT22;42217;50.422;7.210;2023-06-24T08:52:31;29.40;93.80
56308;DHT22;42217;50.422;7.210;2023-06-24T08:54:59;28.90;95.60
56308;DHT22;42217;50.422;7.210;2023-06-24T08:57:25;28.10;99.00
56308;DHT22;42217;50.422;7.210;2023-06-24T08:59:50;27.20;99.90
56308;DHT22;42217;50.422;7.210;2023-06-24T09:02:16;26.30;99.90
56308;DHT22;42217;50.422;7.210;2023-06-24T09:04:42;25.30;99.90
56308;DHT22;42217;50.422;7.210;2023-06-24T09:07:08;24.80;99.90
56308;DHT22;42217;50.422;7.210;2023-06-24T09:09:42;24.40;99.90
56308;DHT22;42217;50.422;7.210;2023-06-24T09:12:11;24.20;99.90
56308;DHT22;42217;50.422;7.210;2023-06-24T09:14:37;24.10;99.90
56308;DHT22;42217;50.422;7.210;2023-06-24T09:17:03;24.00;99.90
56308;DHT22;42217;50.422;7.210;2023-06-24T09:19:32;24.00;99.90
56308;DHT22;42217;50.422;7.210;2023-06-24T09:22:06;24.00;99.90
56308;DHT22;42217;50.422;7.210;2023-06-24T09:24:36;24.00;99.90
56308;DHT22;42217;50.422;7.210;2023-06-24T09:27:03;23.80;99.90
56308;DHT22;42217;50.422;7.210;2023-06-24T09:29:32;23.80;1.00
56308;DHT22;42217;50.422;7.210;2023-06-24T09:31:58;24.00;99.90
56308;DHT22;42217;50.422;7.210;2023-06-24T09:34:28;24.40;99.90
56308;DHT22;42217;50.422;7.210;2023-06-24T09:36:56;24.80;99.90
56308;DHT22;42217;50.422;7.210;2023-06-24T09:39:22;25.60;99.90
56308;DHT22;42217;50.422;7.210;2023-06-24T09:41:54;26.20;99.90
56308;DHT22;42217;50.422;7.210;2023-06-24T09:44:20;26.60;99.90
56308;DHT22;42217;50.422;7.210;2023-06-24T09:46:46;27.10;99.90
56308;DHT22;42217;50.422;7.210;2023-06-24T09:49:12;27.30;99.90
56308;DHT22;42217;50.422;7.210;2023-06-24T09:51:44;27.80;99.90
56308;DHT22;42217;50.422;7.210;2023-06-24T09:54:12;27.70;99.90
56308;DHT22;42217;50.422;7.210;2023-06-24T09:56:42;28.10;99.90
56308;DHT22;42217;50.422;7.210;2023-06-24T09:59:09;28.70;99.90
56308;DHT22;42217;50.422;7.210;2023-06-24T10:01:38;29.10;98.80
56308;DHT22;42217;50.422;7.210;2023-06-24T10:04:06;29.30;98.70
56308;DHT22;42217;50.422;7.210;2023-06-24T10:06:33;29.80;98.00
56308;DHT22;42217;50.422;7.210;2023-06-24T10:09:02;29.40;97.10
56308;DHT22;42217;50.422;7.210;2023-06-24T10:11:28;29.00;96.40
56308;DHT22;42217;50.422;7.210;2023-06-24T10:13:54;28.20;97.40
56308;DHT22;42217;50.422;7.210;2023-06-24T10:16:23;27.60;98.80
56308;DHT22;42217;50.422;7.210;2023-06-24T10:18:48;27.40;99.30
56308;DHT22;42217;50.422;7.210;2023-06-24T10:21:15;27.00;99.50
56308;DHT22;42217;50.422;7.210;2023-06-24T10:23:42;27.00;99.90
56308;DHT22;42217;50.422;7.210;2023-06-24T10:26:27;27.00;99.90
56308;DHT22;42217;50.422;7.210;2023-06-24T10:31:55;27.10;99.90
56308;DHT22;42217;50.422;7.210;2023-06-24T10:34:24;27.30;99.90
56308;DHT22;42217;50.422;7.210;2023-06-24T10:37:02;27.60;99.90
56308;DHT22;42217;50.422;7.210;2023-06-24T10:39:48;27.70;99.30
56308;DHT22;42217;50.422;7.210;2023-06-24T10:42:33;27.40;99.30
56308;DHT22;42217;50.422;7.210;2023-06-24T10:47:41;27.20;99.00
56308;DHT22;42217;50.422;7.210;2023-06-24T10:50:15;27.50;99.90
56308;DHT22;42217;50.422;7.210;2023-06-24T10:52:45;27.70;99.70
56308;DHT22;42217;50.422;7.210;2023-06-24T10:55:18;27.80;98.80
56308;DHT22;42217;50.422;7.210;2023-06-24T10:57:45;27.80;98.70
56308;DHT22;42217;50.422;7.210;2023-06-24T11:00:13;27.90;98.40
56308;DHT22;42217;50.422;7.210;2023-06-24T11:02:38;28.10;98.00
56308;DHT22;42217;50.422;7.210;2023-06-24T11:05:05;28.10;97.70
56308;DHT22;42217;50.422;7.210;2023-06-24T11:07:35;27.80;98.80
56308;DHT22;42217;50.422;7.210;2023-06-24T11:10:03;28.10;98.70
56308;DHT22;42217;50.422;7.210;2023-06-24T11:12:35;28.50;98.30
56308;DHT22;42217;50.422;7.210;2023-06-24T11:15:03;28.50;96.10
56308;DHT22;42217;50.422;7.210;2023-06-24T11:17:29;29.00;95.80
56308;DHT22;42217;50.422;7.210;2023-06-24T11:19:56;29.60;94.90
56308;DHT22;42217;50.422;7.210;2023-06-24T11:22:23;30.30;93.60
56308;DHT22;42217;50.422;7.210;2023-06-24T11:24:49;30.90;91.30
56308;DHT22;42217;50.422;7.210;2023-06-24T11:27:15;31.10;90.30
56308;DHT22;42217;50.422;7.210;2023-06-24T11:29:41;31.40;87.80
56308;DHT22;42217;50.422;7.210;2023-06-24T11:32:09;31.20;88.20
56308;DHT22;42217;50.422;7.210;2023-06-24T11:34:38;30.70;87.70
56308;DHT22;42217;50.422;7.210;2023-06-24T11:37:11;30.50;87.80
56308;DHT22;42217;50.422;7.210;2023-06-24T11:39:37;29.80;90.50
56308;DHT22;42217;50.422;7.210;2023-06-24T11:42:06;29.70;89.60
56308;DHT22;42217;50.422;7.210;2023-06-24T11:44:33;29.60;88.30
56308;DHT22;42217;50.422;7.210;2023-06-24T11:47:09;29.50;90.10
56308;DHT22;42217;50.422;7.210;2023-06-24T11:49:51;29.20;90.90
56308;DHT22;42217;50.422;7.210;2023-06-24T11:52:19;29.10;92.10
56308;DHT22;42217;50.422;7.210;2023-06-24T11:54:45;28.90;92.20
56308;DHT22;42217;50.422;7.210;2023-06-24T11:57:11;29.00;92.40
56308;DHT22;42217;50.422;7.210;2023-06-24T11:59:38;29.30;93.20
56308;DHT22;42217;50.422;7.210;2023-06-24T12:02:04;29.60;90.60
56308;DHT22;42217;50.422;7.210;2023-06-24T12:04:30;30.10;90.30
56308;DHT22;42217;50.422;7.210;2023-06-24T12:06:57;30.40;89.70
56308;DHT22;42217;50.422;7.210;2023-06-24T12:09:23;30.60;85.70
56308;DHT22;42217;50.422;7.210;2023-06-24T12:11:49;30.60;87.80
56308;DHT22;42217;50.422;7.210;2023-06-24T12:14:15;31.00;84.80
56308;DHT22;42217;50.422;7.210;2023-06-24T12:16:40;31.70;83.70
56308;DHT22;42217;50.422;7.210;2023-06-24T12:19:07;31.80;81.40
56308;DHT22;42217;50.422;7.210;2023-06-24T12:21:33;32.00;82.70
56308;DHT22;42217;50.422;7.210;2023-06-24T12:23:59;32.00;81.50
56308;DHT22;42217;50.422;7.210;2023-06-24T12:26:25;31.70;79.10
56308;DHT22;42217;50.422;7.210;2023-06-24T12:28:53;31.40;79.60
56308;DHT22;42217;50.422;7.210;2023-06-24T12:31:19;30.40;82.10
56308;DHT22;42217;50.422;7.210;2023-06-24T12:33:44;30.10;85.10
56308;DHT22;42217;50.422;7.210;2023-06-24T12:36:10;30.00;83.40
56308;DHT22;42217;50.422;7.210;2023-06-24T12:38:36;30.00;84.10
56308;DHT22;42217;50.422;7.210;2023-06-24T12:41:01;29.80;84.40
56308;DHT22;42217;50.422;7.210;2023-06-24T12:43:27;29.90;83.80
56308;DHT22;42217;50.422;7.210;2023-06-24T12:45:53;30.50;83.70
56308;DHT22;42217;50.422;7.210;2023-06-24T12:48:18;31.30;82.00
56308;DHT22;42217;50.422;7.210;2023-06-24T12:50:44;31.40;80.20
56308;DHT22;42217;50.422;7.210;2023-06-24T12:53:10;31.70;78.00
56308;DHT22;42217;50.422;7.210;2023-06-24T12:55:36;31.60;77.40
56308;DHT22;42217;50.422;7.210;2023-06-24T12:58:02;32.40;76.30
56308;DHT22;42217;50.422;7.210;2023-06-24T13:00:28;33.30;74.30
56308;DHT22;42217;50.422;7.210;2023-06-24T13:02:53;34.20;71.40
56308;DHT22;42217;50.422;7.210;2023-06-24T13:05:19;35.70;71.30
56308;DHT22;42217;50.422;7.210;2023-06-24T13:07:45;36.60;65.30
56308;DHT22;42217;50.422;7.210;2023-06-24T13:10:11;37.10;62.70
56308;DHT22;42217;50.422;7.210;2023-06-24T13:12:37;37.40;62.70
56308;DHT22;42217;50.422;7.210;2023-06-24T13:15:04;38.00;60.20
56308;DHT22;42217;50.422;7.210;2023-06-24T13:17:30;38.40;58.30
56308;DHT22;42217;50.422;7.210;2023-06-24T13:19:56;38.30;58.80
56308;DHT22;42217;50.422;7.210;2023-06-24T13:22:23;38.80;58.10
56308;DHT22;42217;50.422;7.210;2023-06-24T13:24:48;38.00;56.20
56308;DHT22;42217;50.422;7.210;2023-06-24T13:27:14;38.60;57.80
56308;DHT22;42217;50.422;7.210;2023-06-24T13:29:40;39.40;56.10
56308;DHT22;42217;50.422;7.210;2023-06-24T13:32:06;38.30;55.50
56308;DHT22;42217;50.422;7.210;2023-06-24T13:34:32;37.80;55.50
56308;DHT22;42217;50.422;7.210;2023-06-24T13:36:57;38.90;54.60
56308;DHT22;42217;50.422;7.210;2023-06-24T13:39:23;38.80;53.90
56308;DHT22;42217;50.422;7.210;2023-06-24T13:41:49;37.60;53.90
56308;DHT22;42217;50.422;7.210;2023-06-24T13:44:15;36.10;54.60
56308;DHT22;42217;50.422;7.210;2023-06-24T13:46:41;34.50;57.50
56308;DHT22;42217;50.422;7.210;2023-06-24T13:49:06;33.50;58.60
56308;DHT22;42217;50.422;7.210;2023-06-24T13:51:32;32.60;59.40
56308;DHT22;42217;50.422;7.210;2023-06-24T13:53:58;31.90;61.00
56308;DHT22;42217;50.422;7.210;2023-06-24T13:56:25;31.60;61.60
56308;DHT22;42217;50.422;7.210;2023-06-24T13:58:51;30.80;63.60
56308;DHT22;42217;50.422;7.210;2023-06-24T14:01:17;30.20;66.20
56308;DHT22;42217;50.422;7.210;2023-06-24T14:03:43;30.00;68.30
56308;DHT22;42217;50.422;7.210;2023-06-24T14:06:09;30.90;65.80
56308;DHT22;42217;50.422;7.210;2023-06-24T14:08:35;31.90;64.20
56308;DHT22;42217;50.422;7.210;2023-06-24T14:11:01;33.90;63.80
56308;DHT22;42217;50.422;7.210;2023-06-24T14:13:28;36.00;59.30
56308;DHT22;42217;50.422;7.210;2023-06-24T14:15:57;37.50;58.30
56308;DHT22;42217;50.422;7.210;2023-06-24T14:18:23;38.80;56.60
56308;DHT22;42217;50.422;7.210;2023-06-24T14:20:51;39.80;55.20
56308;DHT22;42217;50.422;7.210;2023-06-24T14:23:27;40.70;52.70
56308;DHT22;42217;50.422;7.210;2023-06-24T14:25:53;41.00;52.40
56308;DHT22;42217;50.422;7.210;2023-06-24T14:28:19;40.60;52.20
56308;DHT22;42217;50.422;7.210;2023-06-24T14:30:45;40.50;51.70
56308;DHT22;42217;50.422;7.210;2023-06-24T14:33:12;40.30;50.50
56308;DHT22;42217;50.422;7.210;2023-06-24T14:35:37;39.50;50.70
56308;DHT22;42217;50.422;7.210;2023-06-24T14:38:03;40.20;50.00
56308;DHT22;42217;50.422;7.210;2023-06-24T14:40:29;41.00;49.50
56308;DHT22;42217;50.422;7.210;2023-06-24T14:42:55;42.00;48.60
56308;DHT22;42217;50.422;7.210;2023-06-24T14:45:20;42.50;48.50
56308;DHT22;42217;50.422;7.210;2023-06-24T14:47:46;41.90;48.00
56308;DHT22;42217;50.422;7.210;2023-06-24T14:50:12;41.10;47.70
56308;DHT22;42217;50.422;7.210;2023-06-24T14:52:37;40.70;48.00
56308;DHT22;42217;50.422;7.210;2023-06-24T14:55:03;40.40;48.10
56308;DHT22;42217;50.422;7.210;2023-06-24T14:57:29;39.10;49.00
56308;DHT22;42217;50.422;7.210;2023-06-24T14:59:55;38.30;49.10
56308;DHT22;42217;50.422;7.210;2023-06-24T15:02:20;38.70;50.10
56308;DHT22;42217;50.422;7.210;2023-06-24T15:04:46;39.10;49.50
56308;DHT22;42217;50.422;7.210;2023-06-24T15:07:12;38.80;49.00
56308;DHT22;42217;50.422;7.210;2023-06-24T15:09:37;38.90;50.00
56308;DHT22;42217;50.422;7.210;2023-06-24T15:12:03;39.90;49.20
56308;DHT22;42217;50.422;7.210;2023-06-24T15:14:29;39.30;49.10
56308;DHT22;42217;50.422;7.210;2023-06-24T15:16:54;39.00;49.20
56308;DHT22;42217;50.422;7.210;2023-06-24T15:19:23;38.70;50.00
56308;DHT22;42217;50.422;7.210;2023-06-24T15:21:49;38.20;49.60
56308;DHT22;42217;50.422;7.210;2023-06-24T15:24:14;39.00;49.70
56308;DHT22;42217;50.422;7.210;2023-06-24T15:26:40;39.80;49.30
56308;DHT22;42217;50.422;7.210;2023-06-24T15:29:06;40.00;48.30
56308;DHT22;42217;50.422;7.210;2023-06-24T15:31:31;39.60;48.70
56308;DHT22;42217;50.422;7.210;2023-06-24T15:33:57;38.80;49.40
56308;DHT22;42217;50.422;7.210;2023-06-24T15:36:23;38.90;49.30
56308;DHT22;42217;50.422;7.210;2023-06-24T15:38:52;39.60;49.10
56308;DHT22;42217;50.422;7.210;2023-06-24T15:41:18;39.80;48.40
56308;DHT22;42217;50.422;7.210;2023-06-24T15:43:44;39.60;48.80
56308;DHT22;42217;50.422;7.210;2023-06-24T15:46:10;40.30;49.10
56308;DHT22;42217;50.422;7.210;2023-06-24T15:48:35;40.50;48.50
56308;DHT22;42217;50.422;7.210;2023-06-24T15:51:03;40.10;48.40